createdAt,value
2023-05-21T00:00:17.811Z,94595.00
2023-05-21T00:01:17.867Z,94593.00
2023-05-21T00:02:18.020Z,94591.00
2023-05-21T00:03:18.022Z,94591.00
2023-05-21T00:04:18.002Z,94589.00
2023-05-21T00:05:18.021Z,94595.00
2023-05-21T00:06:18.075Z,94593.00
2023-05-21T00:07:18.065Z,94591.00
2023-05-21T00:08:18.132Z,94589.00
2023-05-21T00:09:18.128Z,94587.00
2023-05-21T00:10:18.147Z,94587.00
2023-05-21T00:11:18.199Z,94589.00
2023-05-21T00:12:18.202Z,94589.00
2023-05-21T00:13:18.265Z,94589.00
2023-05-21T00:14:18.327Z,94585.00
2023-05-21T00:15:18.336Z,94583.00
2023-05-21T00:16:18.664Z,94583.00
2023-05-21T00:17:18.635Z,94583.00
2023-05-21T00:18:18.407Z,94583.00
2023-05-21T00:19:18.439Z,94587.00
2023-05-21T00:20:18.475Z,94587.00
2023-05-21T00:21:18.470Z,94591.00
2023-05-21T00:22:18.497Z,94589.00
2023-05-21T00:23:18.524Z,94589.00
2023-05-21T00:24:18.592Z,94591.00
2023-05-21T00:25:18.594Z,94589.00
2023-05-21T00:26:18.656Z,94589.00
2023-05-21T00:27:18.666Z,94591.00
2023-05-21T00:28:18.716Z,94593.00
2023-05-21T00:29:18.740Z,94595.00
2023-05-21T00:30:18.740Z,94595.00
2023-05-21T00:31:18.820Z,94593.00
2023-05-21T00:32:18.855Z,94593.00
2023-05-21T00:33:18.853Z,94593.00
2023-05-21T00:34:18.871Z,94593.00
2023-05-21T00:35:18.912Z,94591.00
2023-05-21T00:36:18.937Z,94587.00
2023-05-21T00:37:18.988Z,94587.00
2023-05-21T00:38:18.994Z,94587.00
2023-05-21T00:39:19.056Z,94587.00
2023-05-21T00:40:19.064Z,94587.00
2023-05-21T00:41:19.117Z,94587.00
2023-05-21T00:42:19.185Z,94589.00
2023-05-21T00:43:19.184Z,94591.00
2023-05-21T00:44:19.189Z,94593.00
2023-05-21T00:45:19.245Z,94593.00
2023-05-21T00:46:19.288Z,94591.00
2023-05-21T00:47:19.247Z,94593.00
2023-05-21T00:48:19.363Z,94591.00
2023-05-21T00:49:19.316Z,94589.00
2023-05-21T00:50:19.367Z,94589.00
2023-05-21T00:51:19.436Z,94589.00
2023-05-21T00:52:19.431Z,94587.00
2023-05-21T00:53:19.456Z,94591.00
2023-05-21T00:54:19.505Z,94589.00
2023-05-21T00:55:19.574Z,94585.00
2023-05-21T00:56:19.580Z,94585.00
2023-05-21T00:57:19.575Z,94587.00
2023-05-21T00:58:19.634Z,94589.00
2023-05-21T00:59:19.656Z,94589.00
2023-05-21T01:00:19.700Z,94589.00
2023-05-21T01:01:19.762Z,94589.00
2023-05-21T01:02:19.819Z,94589.00
2023-05-21T01:03:19.841Z,94587.00
2023-05-21T01:04:19.790Z,94589.00
2023-05-21T01:05:19.837Z,94585.00
2023-05-21T01:06:19.890Z,94585.00
2023-05-21T01:07:19.915Z,94585.00
2023-05-21T01:08:19.920Z,94585.00
2023-05-21T01:09:19.976Z,94585.00
2023-05-21T01:10:19.979Z,94587.00
2023-05-21T01:11:20.043Z,94587.00
2023-05-21T01:12:20.050Z,94583.00
2023-05-21T01:13:20.098Z,94587.00
2023-05-21T01:14:20.101Z,94587.00
2023-05-21T01:15:20.177Z,94587.00
2023-05-21T01:16:20.191Z,94589.00
2023-05-21T01:17:20.237Z,94585.00
2023-05-21T01:18:20.281Z,94583.00
2023-05-21T01:19:20.330Z,94581.00
2023-05-21T01:20:20.329Z,94581.00
2023-05-21T01:21:20.319Z,94583.00
2023-05-21T01:22:20.362Z,94581.00
2023-05-21T01:23:20.423Z,94583.00
2023-05-21T01:24:20.438Z,94575.00
2023-05-21T01:25:20.488Z,94573.00
2023-05-21T01:26:20.499Z,94575.00
2023-05-21T01:27:20.615Z,94581.00
2023-05-21T01:28:20.571Z,94575.00
2023-05-21T01:29:20.560Z,94575.00
2023-05-21T01:30:20.627Z,94575.00
2023-05-21T01:31:20.683Z,94573.00
2023-05-21T01:32:20.687Z,94575.00
2023-05-21T01:33:20.819Z,94572.00
2023-05-21T01:34:20.949Z,94575.00
2023-05-21T01:35:20.756Z,94573.00
2023-05-21T01:36:20.827Z,94575.00
2023-05-21T01:37:20.870Z,94577.00
2023-05-21T01:38:20.884Z,94575.00
2023-05-21T01:39:20.957Z,94577.00
2023-05-21T01:40:20.995Z,94573.00
2023-05-21T01:41:21.015Z,94572.00
2023-05-21T01:42:21.074Z,94570.00
2023-05-21T01:43:21.072Z,94572.00
2023-05-21T01:44:21.141Z,94575.00
2023-05-21T01:45:21.197Z,94572.00
2023-05-21T01:46:21.306Z,94572.00
2023-05-21T01:47:21.322Z,94573.00
2023-05-21T01:48:21.285Z,94572.00
2023-05-21T01:49:21.330Z,94572.00
2023-05-21T01:50:21.377Z,94568.00
2023-05-21T01:51:21.429Z,94564.00
2023-05-21T01:52:21.384Z,94560.00
2023-05-21T01:53:21.450Z,94562.00
2023-05-21T01:54:21.515Z,94564.00
2023-05-21T01:55:21.524Z,94568.00
2023-05-21T01:56:21.582Z,94568.00
2023-05-21T01:57:21.644Z,94568.00
2023-05-21T01:58:21.629Z,94566.00
2023-05-21T01:59:21.686Z,94568.00
2023-05-21T02:00:21.706Z,94566.00
2023-05-21T02:01:21.776Z,94566.00
2023-05-21T02:02:21.826Z,94568.00
2023-05-21T02:03:22.048Z,94566.00
2023-05-21T02:04:21.891Z,94568.00
2023-05-21T02:05:21.891Z,94568.00
2023-05-21T02:06:21.950Z,94568.00
2023-05-21T02:07:22.028Z,94566.00
2023-05-21T02:08:22.015Z,94566.00
2023-05-21T02:09:22.083Z,94568.00
2023-05-21T02:10:22.135Z,94570.00
2023-05-21T02:11:22.130Z,94572.00
2023-05-21T02:12:22.201Z,94573.00
2023-05-21T02:13:24.249Z,94573.00
2023-05-21T02:14:22.221Z,94577.00
2023-05-21T02:15:22.209Z,94575.00
2023-05-21T02:16:22.270Z,94577.00
2023-05-21T02:17:22.202Z,94577.00
2023-05-21T02:18:22.186Z,94577.00
2023-05-21T02:19:22.335Z,94577.00
2023-05-21T02:20:22.317Z,94575.00
2023-05-21T02:21:22.240Z,94581.00
2023-05-21T02:22:22.155Z,94581.00
2023-05-21T02:23:22.178Z,94585.00
2023-05-21T02:24:22.163Z,94581.00
2023-05-21T02:25:22.206Z,94577.00
2023-05-21T02:26:22.607Z,94579.00
2023-05-21T02:27:22.156Z,94577.00
2023-05-21T02:28:22.112Z,94581.00
2023-05-21T02:29:22.134Z,94577.00
2023-05-21T02:30:22.126Z,94579.00
2023-05-21T02:31:22.115Z,94575.00
2023-05-21T02:32:22.159Z,94573.00
2023-05-21T02:33:22.140Z,94573.00
2023-05-21T02:34:22.318Z,94572.00
2023-05-21T02:35:22.105Z,94568.00
2023-05-21T02:36:22.105Z,94566.00
2023-05-21T02:37:22.067Z,94560.00
2023-05-21T02:38:22.071Z,94564.00
2023-05-21T02:39:22.037Z,94564.00
2023-05-21T02:40:22.079Z,94566.00
2023-05-21T02:41:22.043Z,94566.00
2023-05-21T02:42:22.031Z,94566.00
2023-05-21T02:43:22.046Z,94562.00
2023-05-21T02:44:22.059Z,94562.00
2023-05-21T02:45:22.063Z,94562.00
2023-05-21T02:46:22.105Z,94562.00
2023-05-21T02:47:22.147Z,94558.00
2023-05-21T02:48:22.211Z,94552.00
2023-05-21T02:49:22.232Z,94560.00
2023-05-21T02:50:22.313Z,94552.00
2023-05-21T02:51:22.322Z,94554.00
2023-05-21T02:52:22.385Z,94556.00
2023-05-21T02:53:22.430Z,94556.00
2023-05-21T02:54:22.480Z,94554.00
2023-05-21T02:55:22.539Z,94554.00
2023-05-21T02:56:22.616Z,94558.00
2023-05-21T02:57:22.617Z,94558.00
2023-05-21T02:58:22.659Z,94558.00
2023-05-21T02:59:22.708Z,94558.00
2023-05-21T03:00:22.784Z,94556.00
2023-05-21T03:01:22.881Z,94562.00
2023-05-21T03:02:23.050Z,94558.00
2023-05-21T03:03:23.089Z,94556.00
2023-05-21T03:04:23.021Z,94558.00
2023-05-21T03:05:23.062Z,94560.00
2023-05-21T03:06:23.084Z,94566.00
2023-05-21T03:07:23.128Z,94568.00
2023-05-21T03:08:23.200Z,94568.00
2023-05-21T03:09:23.246Z,94570.00
2023-05-21T03:10:23.299Z,94572.00
2023-05-21T03:11:23.372Z,94573.00
2023-05-21T03:12:23.434Z,94573.00
2023-05-21T03:13:23.544Z,94570.00
2023-05-21T03:14:23.501Z,94568.00
2023-05-21T03:15:23.553Z,94568.00
2023-05-21T03:16:23.628Z,94572.00
2023-05-21T03:17:23.835Z,94573.00
2023-05-21T03:18:23.664Z,94573.00
2023-05-21T03:19:23.760Z,94573.00
2023-05-21T03:20:23.801Z,94575.00
2023-05-21T03:21:23.885Z,94570.00
2023-05-21T03:22:23.924Z,94566.00
2023-05-21T03:23:23.969Z,94570.00
2023-05-21T03:24:24.013Z,94570.00
2023-05-21T03:25:24.183Z,94572.00
2023-05-21T03:26:24.130Z,94572.00
2023-05-21T03:27:24.236Z,94570.00
2023-05-21T03:28:24.240Z,94568.00
2023-05-21T03:29:24.278Z,94566.00
2023-05-21T03:30:24.325Z,94568.00
2023-05-21T03:31:24.411Z,94570.00
2023-05-21T03:32:24.493Z,94572.00
2023-05-21T03:33:24.436Z,94573.00
2023-05-21T03:34:24.549Z,94573.00
2023-05-21T03:35:24.602Z,94573.00
2023-05-21T03:36:24.629Z,94572.00
2023-05-21T03:37:24.677Z,94575.00
2023-05-21T03:38:24.727Z,94575.00
2023-05-21T03:39:24.795Z,94579.00
2023-05-21T03:40:24.862Z,94579.00
2023-05-21T03:41:24.911Z,94581.00
2023-05-21T03:42:24.975Z,94583.00
2023-05-21T03:43:25.024Z,94583.00
2023-05-21T03:44:25.070Z,94583.00
2023-05-21T03:45:25.136Z,94583.00
2023-05-21T03:46:25.238Z,94577.00
2023-05-21T03:47:25.323Z,94577.00
2023-05-21T03:48:25.311Z,94579.00
2023-05-21T03:49:25.370Z,94577.00
2023-05-21T03:50:25.419Z,94577.00
2023-05-21T03:51:25.481Z,94577.00
2023-05-21T03:52:25.538Z,94581.00
2023-05-21T03:53:25.606Z,94583.00
2023-05-21T03:54:25.653Z,94583.00
2023-05-21T03:55:25.729Z,94583.00
2023-05-21T03:56:25.773Z,94583.00
2023-05-21T03:57:25.843Z,94583.00
2023-05-21T03:58:26.011Z,94579.00
2023-05-21T03:59:25.941Z,94575.00
2023-05-21T04:00:25.997Z,94572.00
2023-05-21T04:01:26.072Z,94573.00
2023-05-21T04:02:26.168Z,94581.00
2023-05-21T04:03:26.302Z,94585.00
2023-05-21T04:04:26.219Z,94587.00
2023-05-21T04:05:26.920Z,94583.00
2023-05-21T04:06:26.301Z,94585.00
2023-05-21T04:07:26.357Z,94585.00
2023-05-21T04:08:26.425Z,94585.00
2023-05-21T04:09:26.490Z,94587.00
2023-05-21T04:10:26.536Z,94587.00
2023-05-21T04:11:26.647Z,94589.00
2023-05-21T04:12:26.698Z,94587.00
2023-05-21T04:13:26.756Z,94593.00
2023-05-21T04:14:26.817Z,94593.00
2023-05-21T04:15:26.886Z,94599.00
2023-05-21T04:16:26.937Z,94597.00
2023-05-21T04:17:27.077Z,94593.00
2023-05-21T04:18:26.994Z,94597.00
2023-05-21T04:19:27.164Z,94601.00
2023-05-21T04:20:27.123Z,94607.00
2023-05-21T04:21:27.397Z,94611.00
2023-05-21T04:22:27.234Z,94613.00
2023-05-21T04:23:27.247Z,94609.00
2023-05-21T04:24:27.298Z,94611.00
2023-05-21T04:25:27.356Z,94609.00
2023-05-21T04:26:27.407Z,94607.00
2023-05-21T04:27:27.434Z,94609.00
2023-05-21T04:28:27.529Z,94607.00
2023-05-21T04:29:27.564Z,94611.00
2023-05-21T04:30:27.606Z,94613.00
2023-05-21T04:31:27.684Z,94615.00
2023-05-21T04:32:27.721Z,94615.00
2023-05-21T04:33:27.764Z,94613.00
2023-05-21T04:34:27.843Z,94609.00
2023-05-21T04:35:27.842Z,94609.00
2023-05-21T04:36:27.888Z,94609.00
2023-05-21T04:37:27.968Z,94609.00
2023-05-21T04:38:28.014Z,94609.00
2023-05-21T04:39:28.068Z,94611.00
2023-05-21T04:40:28.088Z,94607.00
2023-05-21T04:41:28.122Z,94605.00
2023-05-21T04:42:28.197Z,94601.00
2023-05-21T04:43:28.267Z,94599.00
2023-05-21T04:44:28.310Z,94597.00
2023-05-21T04:45:28.357Z,94601.00
2023-05-21T04:46:28.504Z,94605.00
2023-05-21T04:47:28.455Z,94605.00
2023-05-21T04:48:28.439Z,94605.00
2023-05-21T04:49:28.485Z,94603.00
2023-05-21T04:50:28.563Z,94605.00
2023-05-21T04:51:28.556Z,94605.00
2023-05-21T04:52:28.595Z,94605.00
2023-05-21T04:53:28.609Z,94603.00
2023-05-21T04:54:28.676Z,94599.00
2023-05-21T04:55:28.689Z,94595.00
2023-05-21T04:56:28.751Z,94595.00
2023-05-21T04:57:28.807Z,94597.00
2023-05-21T04:58:28.882Z,94597.00
2023-05-21T04:59:28.866Z,94595.00
2023-05-21T05:00:28.943Z,94597.00
2023-05-21T05:01:29.008Z,94599.00
2023-05-21T05:02:28.998Z,94599.00
2023-05-21T05:03:29.101Z,94601.00
2023-05-21T05:04:29.068Z,94601.00
2023-05-21T05:05:29.064Z,94597.00
2023-05-21T05:06:29.122Z,94599.00
2023-05-21T05:07:29.126Z,94593.00
2023-05-21T05:08:29.197Z,94593.00
2023-05-21T05:09:29.204Z,94597.00
2023-05-21T05:10:29.257Z,94593.00
2023-05-21T05:11:29.245Z,94589.00
2023-05-21T05:12:29.250Z,94589.00
2023-05-21T05:13:29.345Z,94591.00
2023-05-21T05:14:29.412Z,94587.00
2023-05-21T05:15:29.393Z,94589.00
2023-05-21T05:16:29.560Z,94591.00
2023-05-21T05:17:29.481Z,94589.00
2023-05-21T05:18:29.480Z,94589.00
2023-05-21T05:19:29.749Z,94587.00
2023-05-21T05:20:29.524Z,94589.00
2023-05-21T05:21:29.597Z,94587.00
2023-05-21T05:22:29.595Z,94585.00
2023-05-21T05:23:29.664Z,94585.00
2023-05-21T05:24:29.640Z,94583.00
2023-05-21T05:25:29.718Z,94585.00
2023-05-21T05:26:29.753Z,94583.00
2023-05-21T05:27:29.772Z,94581.00
2023-05-21T05:28:29.799Z,94581.00
2023-05-21T05:29:29.848Z,94583.00
2023-05-21T05:30:29.866Z,94581.00
2023-05-21T05:31:29.935Z,94585.00
2023-05-21T05:32:29.946Z,94585.00
2023-05-21T05:33:29.987Z,94587.00
2023-05-21T05:34:29.990Z,94589.00
2023-05-21T05:35:29.986Z,94587.00
2023-05-21T05:36:30.055Z,94585.00
2023-05-21T05:37:30.113Z,94585.00
2023-05-21T05:38:30.067Z,94579.00
2023-05-21T05:39:30.166Z,94579.00
2023-05-21T05:40:30.170Z,94579.00
2023-05-21T05:41:30.169Z,94579.00
2023-05-21T05:42:30.254Z,94579.00
2023-05-21T05:43:30.260Z,94579.00
2023-05-21T05:44:30.260Z,94577.00
2023-05-21T05:45:30.354Z,94581.00
2023-05-21T05:46:30.340Z,94577.00
2023-05-21T05:47:30.379Z,94577.00
2023-05-21T05:48:30.390Z,94575.00
2023-05-21T05:49:30.406Z,94579.00
2023-05-21T05:50:30.411Z,94579.00
2023-05-21T05:51:30.365Z,94579.00
2023-05-21T05:52:30.403Z,94583.00
2023-05-21T05:53:30.420Z,94581.00
2023-05-21T05:54:30.500Z,94581.00
2023-05-21T05:55:30.537Z,94581.00
2023-05-21T05:56:30.575Z,94579.00
2023-05-21T05:57:30.591Z,94575.00
2023-05-21T05:58:30.593Z,94577.00
2023-05-21T05:59:30.564Z,94575.00
2023-05-21T06:00:30.605Z,94577.00
2023-05-21T06:01:30.588Z,94579.00
2023-05-21T06:02:30.651Z,94581.00
2023-05-21T06:04:30.595Z,94583.00
2023-05-21T06:05:30.649Z,94581.00
2023-05-21T06:06:30.643Z,94587.00
2023-05-21T06:07:30.729Z,94585.00
2023-05-21T06:08:30.999Z,94583.00
2023-05-21T06:09:30.593Z,94581.00
2023-05-21T06:10:30.661Z,94579.00
2023-05-21T06:11:30.695Z,94579.00
2023-05-21T06:12:30.781Z,94581.00
2023-05-21T06:13:30.801Z,94581.00
2023-05-21T06:14:30.825Z,94579.00
2023-05-21T06:15:30.916Z,94577.00
2023-05-21T06:16:31.026Z,94575.00
2023-05-21T06:17:31.108Z,94575.00
2023-05-21T06:18:31.096Z,94572.00
2023-05-21T06:19:31.277Z,94572.00
2023-05-21T06:20:31.219Z,94572.00
2023-05-21T06:21:31.224Z,94572.00
2023-05-21T06:22:31.299Z,94572.00
2023-05-21T06:23:31.375Z,94573.00
2023-05-21T06:24:31.373Z,94572.00
2023-05-21T06:25:31.458Z,94570.00
2023-05-21T06:26:31.466Z,94562.00
2023-05-21T06:27:31.574Z,94560.00
2023-05-21T06:28:31.722Z,94554.00
2023-05-21T06:29:31.801Z,94556.00
2023-05-21T06:30:31.631Z,94558.00
2023-05-21T06:31:31.664Z,94558.00
2023-05-21T06:32:31.858Z,94560.00
2023-05-21T06:33:31.855Z,94562.00
2023-05-21T06:34:31.841Z,94558.00
2023-05-21T06:35:31.832Z,94554.00
2023-05-21T06:36:31.839Z,94554.00
2023-05-21T06:37:31.889Z,94550.00
2023-05-21T06:38:31.904Z,94550.00
2023-05-21T06:39:31.930Z,94550.00
2023-05-21T06:40:31.978Z,94554.00
2023-05-21T06:41:31.992Z,94556.00
2023-05-21T06:42:32.058Z,94556.00
2023-05-21T06:43:32.018Z,94554.00
2023-05-21T06:44:32.136Z,94550.00
2023-05-21T06:45:32.417Z,94548.00
2023-05-21T06:46:32.228Z,94552.00
2023-05-21T06:47:32.137Z,94558.00
2023-05-21T06:48:32.173Z,94562.00
2023-05-21T06:49:32.188Z,94560.00
2023-05-21T06:50:32.261Z,94554.00
2023-05-21T06:51:32.240Z,94556.00
2023-05-21T06:52:32.271Z,94552.00
2023-05-21T06:53:32.266Z,94552.00
2023-05-21T06:54:32.326Z,94552.00
2023-05-21T06:55:32.313Z,94552.00
2023-05-21T06:56:32.337Z,94558.00
2023-05-21T06:57:32.348Z,94562.00
2023-05-21T06:58:32.341Z,94562.00
2023-05-21T06:59:32.418Z,94566.00
2023-05-21T07:00:32.377Z,94560.00
2023-05-21T07:01:32.451Z,94556.00
2023-05-21T07:02:32.576Z,94556.00
2023-05-21T07:03:32.632Z,94552.00
2023-05-21T07:04:32.438Z,94554.00
2023-05-21T07:05:32.596Z,94554.00
2023-05-21T07:06:32.453Z,94558.00
2023-05-21T07:07:32.466Z,94556.00
2023-05-21T07:08:32.515Z,94554.00
2023-05-21T07:09:32.507Z,94552.00
2023-05-21T07:10:32.497Z,94552.00
2023-05-21T07:11:32.533Z,94550.00
2023-05-21T07:12:32.499Z,94548.00
2023-05-21T07:13:32.513Z,94546.00
2023-05-21T07:14:32.558Z,94548.00
2023-05-21T07:15:32.534Z,94548.00
2023-05-21T07:16:32.586Z,94546.00
2023-05-21T07:17:32.571Z,94546.00
2023-05-21T07:18:32.530Z,94544.00
2023-05-21T07:19:32.714Z,94540.00
2023-05-21T07:20:32.555Z,94538.00
2023-05-21T07:21:32.603Z,94536.00
2023-05-21T07:22:32.564Z,94532.00
2023-05-21T07:23:32.536Z,94532.00
2023-05-21T07:24:32.575Z,94528.00
2023-05-21T07:25:32.579Z,94532.00
2023-05-21T07:26:32.596Z,94530.00
2023-05-21T07:27:32.637Z,94528.00
2023-05-21T07:28:32.680Z,94530.00
2023-05-21T07:29:32.764Z,94530.00
2023-05-21T07:30:32.800Z,94528.00
2023-05-21T07:31:32.887Z,94528.00
2023-05-21T07:32:32.919Z,94530.00
2023-05-21T07:33:32.983Z,94526.00
2023-05-21T07:34:33.074Z,94520.00
2023-05-21T07:35:33.072Z,94522.00
2023-05-21T07:36:33.136Z,94518.00
2023-05-21T07:37:33.189Z,94517.00
2023-05-21T07:38:33.241Z,94515.00
2023-05-21T07:39:33.297Z,94517.00
2023-05-21T07:40:33.367Z,94513.00
2023-05-21T07:41:33.425Z,94515.00
2023-05-21T07:42:33.425Z,94517.00
2023-05-21T07:43:33.506Z,94520.00
2023-05-21T07:44:33.574Z,94522.00
2023-05-21T07:45:33.578Z,94520.00
2023-05-21T07:46:33.667Z,94520.00
2023-05-21T07:47:33.653Z,94520.00
2023-05-21T07:48:35.419Z,94518.00
2023-05-21T07:49:33.704Z,94517.00
2023-05-21T07:50:33.891Z,94513.00
2023-05-21T07:51:33.816Z,94513.00
2023-05-21T07:52:33.888Z,94515.00
2023-05-21T07:53:33.904Z,94513.00
2023-05-21T07:54:33.916Z,94507.00
2023-05-21T07:55:33.950Z,94505.00
2023-05-21T07:56:33.985Z,94503.00
2023-05-21T07:57:33.982Z,94501.00
2023-05-21T07:58:34.002Z,94503.00
2023-05-21T07:59:34.052Z,94505.00
2023-05-21T08:00:34.019Z,94507.00
2023-05-21T08:01:34.062Z,94505.00
2023-05-21T08:02:34.211Z,94503.00
2023-05-21T08:03:34.256Z,94499.00
2023-05-21T08:04:34.184Z,94499.00
2023-05-21T08:05:34.194Z,94499.00
2023-05-21T08:06:34.172Z,94501.00
2023-05-21T08:07:34.208Z,94501.00
2023-05-21T08:08:34.250Z,94503.00
2023-05-21T08:09:34.220Z,94503.00
2023-05-21T08:10:34.256Z,94501.00
2023-05-21T08:11:34.254Z,94501.00
2023-05-21T08:12:34.291Z,94499.00
2023-05-21T08:13:34.288Z,94501.00
2023-05-21T08:14:34.323Z,94503.00
2023-05-21T08:15:34.524Z,94501.00
2023-05-21T08:16:34.484Z,94501.00
2023-05-21T08:17:34.472Z,94501.00
2023-05-21T08:18:34.394Z,94501.00
2023-05-21T08:19:34.505Z,94497.00
2023-05-21T08:20:34.429Z,94493.00
2023-05-21T08:21:34.471Z,94491.00
2023-05-21T08:22:34.543Z,94491.00
2023-05-21T08:23:34.525Z,94489.00
2023-05-21T08:24:34.541Z,94493.00
2023-05-21T08:25:34.634Z,94493.00
2023-05-21T08:26:34.542Z,94491.00
2023-05-21T08:27:34.548Z,94493.00
2023-05-21T08:28:34.619Z,94489.00
2023-05-21T08:29:34.561Z,94487.00
2023-05-21T08:30:34.613Z,94485.00
2023-05-21T08:31:34.702Z,94483.00
2023-05-21T08:32:34.718Z,94479.00
2023-05-21T08:33:34.764Z,94473.00
2023-05-21T08:34:34.870Z,94470.00
2023-05-21T08:35:35.116Z,94468.00
2023-05-21T08:36:35.100Z,94471.00
2023-05-21T08:37:34.994Z,94471.00
2023-05-21T08:38:34.992Z,94471.00
2023-05-21T08:39:34.967Z,94473.00
2023-05-21T08:40:35.074Z,94473.00
2023-05-21T08:41:34.989Z,94473.00
2023-05-21T08:42:37.554Z,94470.00
2023-05-21T08:43:34.999Z,94468.00
2023-05-21T08:44:34.982Z,94466.00
2023-05-21T08:45:35.297Z,94468.00
2023-05-21T08:46:34.959Z,94468.00
2023-05-21T08:47:35.037Z,94466.00
2023-05-21T08:48:34.954Z,94466.00
2023-05-21T08:49:34.984Z,94466.00
2023-05-21T08:50:34.967Z,94468.00
2023-05-21T08:51:34.934Z,94471.00
2023-05-21T08:52:34.891Z,94470.00
2023-05-21T08:53:35.053Z,94468.00
2023-05-21T08:54:34.949Z,94464.00
2023-05-21T08:55:35.121Z,94458.00
2023-05-21T08:56:34.940Z,94456.00
2023-05-21T08:57:34.898Z,94456.00
2023-05-21T08:58:34.899Z,94456.00
2023-05-21T08:59:34.883Z,94454.00
2023-05-21T09:00:34.901Z,94450.00
2023-05-21T09:01:34.928Z,94450.00
2023-05-21T09:02:34.908Z,94446.00
2023-05-21T09:03:34.880Z,94446.00
2023-05-21T09:04:35.016Z,94444.00
2023-05-21T09:05:35.088Z,94442.00
2023-05-21T09:06:34.780Z,94440.00
2023-05-21T09:07:34.784Z,94444.00
2023-05-21T09:08:34.842Z,94444.00
2023-05-21T09:09:34.786Z,94452.00
2023-05-21T09:10:35.069Z,94454.00
2023-05-21T09:11:34.798Z,94456.00
2023-05-21T09:12:34.768Z,94456.00
2023-05-21T09:13:35.838Z,94458.00
2023-05-21T09:14:34.785Z,94462.00
2023-05-21T09:15:34.927Z,94466.00
2023-05-21T09:16:34.790Z,94470.00
2023-05-21T09:17:34.764Z,94454.00
2023-05-21T09:18:34.715Z,94454.00
2023-05-21T09:19:34.890Z,94462.00
2023-05-21T09:20:34.716Z,94458.00
2023-05-21T09:21:34.847Z,94450.00
2023-05-21T09:22:34.684Z,94444.00
2023-05-21T09:23:34.702Z,94446.00
2023-05-21T09:24:36.218Z,94452.00
2023-05-21T09:25:34.712Z,94452.00
2023-05-21T09:26:34.732Z,94452.00
2023-05-21T09:27:34.702Z,94450.00
2023-05-21T09:28:34.674Z,94448.00
2023-05-21T09:29:34.726Z,94446.00
2023-05-21T09:30:36.213Z,94440.00
2023-05-21T09:31:34.736Z,94446.00
2023-05-21T09:32:34.671Z,94454.00
2023-05-21T09:33:34.665Z,94454.00
2023-05-21T09:34:34.659Z,94458.00
2023-05-21T09:35:35.676Z,94450.00
2023-05-21T09:36:34.649Z,94444.00
2023-05-21T09:37:34.644Z,94452.00
2023-05-21T09:38:34.643Z,94466.00
2023-05-21T09:39:34.607Z,94462.00
2023-05-21T09:40:34.727Z,94460.00
2023-05-21T09:41:34.595Z,94458.00
2023-05-21T09:42:34.567Z,94464.00
2023-05-21T09:43:34.585Z,94460.00
2023-05-21T09:44:34.583Z,94464.00
2023-05-21T09:45:34.732Z,94464.00
2023-05-21T09:46:34.570Z,94462.00
2023-05-21T09:47:34.532Z,94452.00
2023-05-21T09:48:34.590Z,94462.00
2023-05-21T09:49:34.520Z,94452.00
2023-05-21T09:50:34.573Z,94454.00
2023-05-21T09:51:34.527Z,94450.00
2023-05-21T09:52:34.506Z,94454.00
2023-05-21T09:53:34.509Z,94454.00
2023-05-21T09:54:34.501Z,94456.00
2023-05-21T09:55:34.506Z,94456.00
2023-05-21T09:56:34.774Z,94456.00
2023-05-21T09:57:34.461Z,94462.00
2023-05-21T09:58:34.485Z,94468.00
2023-05-21T09:59:34.489Z,94460.00
2023-05-21T10:00:34.513Z,94466.00
2023-05-21T10:01:34.464Z,94462.00
2023-05-21T10:02:34.466Z,94458.00
2023-05-21T10:03:34.765Z,94458.00
2023-05-21T10:04:34.476Z,94462.00
2023-05-21T10:05:34.419Z,94466.00
2023-05-21T10:06:34.426Z,94466.00
2023-05-21T10:07:34.372Z,94466.00
2023-05-21T10:08:34.444Z,94458.00
2023-05-21T10:09:34.505Z,94458.00
2023-05-21T10:10:34.758Z,94462.00
2023-05-21T10:11:34.677Z,94462.00
2023-05-21T10:12:34.775Z,94462.00
2023-05-21T10:13:34.864Z,94462.00
2023-05-21T10:14:34.939Z,94460.00
2023-05-21T10:15:34.944Z,94462.00
2023-05-21T10:16:34.983Z,94462.00
2023-05-21T10:17:35.080Z,94464.00
2023-05-21T10:18:34.921Z,94464.00
2023-05-21T10:19:35.125Z,94456.00
2023-05-21T10:20:35.244Z,94458.00
2023-05-21T10:21:35.094Z,94462.00
2023-05-21T10:22:35.101Z,94454.00
2023-05-21T10:23:35.098Z,94450.00
2023-05-21T10:24:35.054Z,94450.00
2023-05-21T10:25:35.121Z,94450.00
2023-05-21T10:26:35.069Z,94444.00
2023-05-21T10:27:35.106Z,94442.00
2023-05-21T10:28:35.245Z,94444.00
2023-05-21T10:29:35.254Z,94444.00
2023-05-21T10:30:35.421Z,94440.00
2023-05-21T10:31:35.216Z,94434.00
2023-05-21T10:32:35.338Z,94438.00
2023-05-21T10:33:35.381Z,94436.00
2023-05-21T10:34:35.437Z,94440.00
2023-05-21T10:35:35.656Z,94438.00
2023-05-21T10:36:36.069Z,94430.00
2023-05-21T10:37:35.633Z,94434.00
2023-05-21T10:38:35.619Z,94428.00
2023-05-21T10:39:35.632Z,94430.00
2023-05-21T10:40:35.792Z,94424.00
2023-05-21T10:41:35.585Z,94428.00
2023-05-21T10:42:35.697Z,94428.00
2023-05-21T10:43:35.734Z,94421.00
2023-05-21T10:44:35.866Z,94421.00
2023-05-21T10:45:36.141Z,94428.00
2023-05-21T10:46:36.030Z,94421.00
2023-05-21T10:47:36.187Z,94426.00
2023-05-21T10:48:36.142Z,94421.00
2023-05-21T10:49:36.098Z,94423.00
2023-05-21T10:50:36.312Z,94424.00
2023-05-21T10:51:36.124Z,94419.00
2023-05-21T10:52:36.179Z,94421.00
2023-05-21T10:53:36.287Z,94419.00
2023-05-21T10:54:36.383Z,94413.00
2023-05-21T10:55:36.424Z,94417.00
2023-05-21T10:56:36.418Z,94423.00
2023-05-21T10:57:36.414Z,94421.00
2023-05-21T10:58:36.375Z,94419.00
2023-05-21T10:59:36.452Z,94415.00
2023-05-21T11:00:37.470Z,94413.00
2023-05-21T11:01:36.433Z,94409.00
2023-05-21T11:02:36.539Z,94405.00
2023-05-21T11:03:37.925Z,94419.00
2023-05-21T11:04:36.570Z,94417.00
2023-05-21T11:05:36.687Z,94415.00
2023-05-21T11:06:36.510Z,94409.00
2023-05-21T11:07:36.584Z,94409.00
2023-05-21T11:08:37.124Z,94413.00
2023-05-21T11:09:36.637Z,94411.00
2023-05-21T11:10:36.949Z,94417.00
2023-05-21T11:11:36.728Z,94405.00
2023-05-21T11:12:36.669Z,94411.00
2023-05-21T11:13:36.686Z,94411.00
2023-05-21T11:14:36.762Z,94409.00
2023-05-21T11:15:36.686Z,94409.00
2023-05-21T11:16:36.805Z,94411.00
2023-05-21T11:17:36.883Z,94411.00
2023-05-21T11:18:36.796Z,94409.00
2023-05-21T11:19:36.860Z,94407.00
2023-05-21T11:20:36.947Z,94409.00
2023-05-21T11:21:36.897Z,94413.00
2023-05-21T11:22:36.815Z,94419.00
2023-05-21T11:23:36.853Z,94405.00
2023-05-21T11:24:36.861Z,94405.00
2023-05-21T11:25:36.850Z,94413.00
2023-05-21T11:26:36.877Z,94409.00
2023-05-21T11:27:36.871Z,94411.00
2023-05-21T11:28:36.986Z,94419.00
2023-05-21T11:29:37.042Z,94409.00
2023-05-21T11:30:38.379Z,94405.00
2023-05-21T11:31:37.145Z,94407.00
2023-05-21T11:32:37.074Z,94407.00
2023-05-21T11:33:37.038Z,94407.00
2023-05-21T11:34:37.022Z,94409.00
2023-05-21T11:35:37.039Z,94403.00
2023-05-21T11:36:37.026Z,94403.00
2023-05-21T11:37:37.050Z,94405.00
2023-05-21T11:38:37.004Z,94405.00
2023-05-21T11:39:37.016Z,94403.00
2023-05-21T11:40:37.282Z,94409.00
2023-05-21T11:41:37.022Z,94407.00
2023-05-21T11:42:36.988Z,94399.00
2023-05-21T11:43:36.989Z,94399.00
2023-05-21T11:44:36.959Z,94399.00
2023-05-21T11:45:36.947Z,94403.00